Pagrindinis puslapis
METAR-TAF:

METAR-TAF

Oro uostai :

Bostonas, Masačusetsas, Jungtinės Amerikos Valstijos

platuma: 42-21-38N, ilguma: 071-00-38W, Aukštis: 6 m

Dabartinis oras

Ataskaita buvo paskelbta 1 valandą ir 6 minutes, ne 15:54 UTC
Vėjas 7 kt iš Šiaurės Vakarų
Temperatūra 23°C
Drėgmė 36%
Slėgis 1021 hPa
Matomumas: 16.1 km
Mažai debesys ne aukštis 25000 ft

METAR: KBOS 201554Z 31007KT 10SM FEW250 23/07 A3016 RMK AO2 SLP211 T02330067

Laikas: 13:00 (17:00 UTC)

Prognozė

Ataskaita buvo paskelbta 1 valandą ir 54 minutes, ne 15:06 UTC
Prognozė galioja nuo 20 metu 15 UTC su 21 metu 18 UTC
Vėjas 7 kt iš Vakarų
Matomumas: 10 km
Mažai debesys ne aukštis 15000 ft
Nuo 21 metu 1200 UTC
Vėjas 6 kt iš Šiaurės/Šiaurės Vakarų
Matomumas: 10 km
Giedras dangus
Nuo 21 metu 1600 UTC
Vėjas 5 kt iš Šiaurės Rytų
Matomumas: 10 km
Giedras dangus

TAF: KBOS 201506Z 2015/2118 28007KT P6SM FEW150 FM211200 33006KT P6SM SKC FM211600 05005KT P6SM SKC

Orai ataskaitas ir orų prognozės (METAR, TAF).

turimą stotys yra geltonos ir raudonos taškus žemėlapyje.

Perkelti pele per norėdami pamatyti stoties vardą.

Tada spustelėkite, norėdami matyti oro stebėjimo ir prognozės.

Norėdami pakeisti žemėlapį: spustelėkite ant žalios mygtukų su juodo kryžiaus žemyn,; žalią mygtuką su brūkšneliu, jei norite nutolinti; arba žalių rodyklių gretimoms žemėlapius.


METAR-TAF: